createdAt,value
2023-03-13T00:00:01.710Z,7.79
2023-03-13T00:05:03.953Z,7.79
2023-03-13T00:10:06.810Z,7.82
2023-03-13T00:15:11.033Z,7.89
2023-03-13T00:20:13.020Z,7.94
2023-03-13T00:25:14.810Z,7.98
2023-03-13T00:30:18.210Z,8.01
2023-03-13T00:35:19.939Z,8.10
2023-03-13T00:40:22.448Z,8.10
2023-03-13T00:45:26.808Z,8.18
2023-03-13T00:50:28.538Z,8.23
2023-03-13T00:55:30.254Z,8.24
2023-03-13T01:00:33.272Z,8.24
2023-03-13T01:05:34.961Z,8.25
2023-03-13T01:10:36.689Z,8.24
2023-03-13T01:15:39.965Z,8.22
2023-03-13T01:20:41.734Z,8.20
2023-03-13T01:25:43.930Z,8.20
2023-03-13T01:30:47.168Z,8.21
2023-03-13T01:35:49.279Z,8.17
2023-03-13T01:40:51.035Z,8.27
2023-03-13T01:46:05.927Z,8.19
2023-03-13T01:51:27.101Z,8.29
2023-03-13T01:56:34.495Z,8.34
2023-03-13T02:01:38.687Z,8.36
2023-03-13T02:06:41.676Z,8.48
2023-03-13T02:11:47.645Z,8.56
2023-03-13T02:16:52.009Z,8.51
2023-03-13T02:21:54.827Z,8.59
2023-03-13T02:26:57.874Z,8.58
2023-03-13T02:31:59.717Z,8.59
2023-03-13T02:37:01.617Z,8.70
2023-03-13T02:42:05.232Z,8.70
2023-03-13T02:47:09.888Z,8.66
2023-03-13T02:52:13.346Z,8.66
2023-03-13T02:57:18.900Z,8.64
2023-03-13T03:02:20.825Z,8.59
2023-03-13T03:07:22.711Z,8.53
2023-03-13T03:12:26.806Z,8.52
2023-03-13T03:17:28.709Z,8.57
2023-03-13T03:22:30.541Z,8.63
2023-03-13T03:27:33.688Z,8.67
2023-03-13T03:32:35.597Z,8.72
2023-03-13T03:37:37.445Z,8.66
2023-03-13T03:42:41.383Z,8.58
2023-03-13T03:47:43.336Z,8.59
2023-03-13T03:52:46.106Z,8.61
2023-03-13T03:57:49.303Z,8.66
2023-03-13T04:03:00.043Z,8.67
2023-03-13T04:08:01.948Z,8.58
2023-03-13T04:13:05.027Z,8.60
2023-03-13T04:18:07.532Z,8.60
2023-03-13T04:23:09.270Z,8.72
2023-03-13T04:28:12.457Z,8.71
2023-03-13T04:33:18.557Z,8.71
2023-03-13T04:38:43.203Z,8.67
2023-03-13T04:43:59.719Z,8.73
2023-03-13T04:49:18.885Z,8.75
2023-03-13T04:54:39.143Z,8.78
2023-03-13T05:00:08.108Z,8.80
2023-03-13T05:05:26.165Z,8.83
2023-03-13T05:10:52.443Z,8.88
2023-03-13T05:16:14.771Z,8.91
2023-03-13T05:21:44.223Z,8.94
2023-03-13T05:27:02.507Z,9.04
2023-03-13T05:32:25.989Z,8.98
2023-03-13T05:37:48.054Z,8.92
2023-03-13T05:43:28.337Z,8.93
2023-03-13T05:48:52.726Z,9.00
2023-03-13T05:54:10.651Z,9.07
2023-03-13T05:59:32.608Z,9.18
2023-03-13T06:04:58.957Z,9.17
2023-03-13T06:10:00.906Z,9.14
2023-03-13T06:15:02.832Z,9.20
2023-03-13T06:20:26.176Z,9.23
2023-03-13T06:25:27.916Z,9.20
2023-03-13T06:30:29.649Z,9.32
2023-03-13T06:35:34.317Z,9.28
2023-03-13T06:40:38.850Z,9.38
2023-03-13T06:45:40.533Z,9.43
2023-03-13T06:50:43.638Z,9.53
2023-03-13T06:55:45.382Z,9.54
2023-03-13T07:00:47.305Z,9.62
2023-03-13T07:05:55.157Z,9.69
2023-03-13T07:10:59.022Z,9.80
2023-03-13T07:16:01.189Z,9.80
2023-03-13T07:21:07.363Z,9.86
2023-03-13T07:26:11.037Z,9.94
2023-03-13T07:31:14.979Z,9.99
2023-03-13T07:36:18.415Z,10.03
2023-03-13T07:41:20.351Z,10.10
2023-03-13T07:46:22.579Z,10.10
2023-03-13T07:51:42.216Z,10.19
2023-03-13T07:56:44.965Z,10.19
2023-03-13T08:01:46.678Z,10.25
2023-03-13T08:06:49.779Z,10.30
2023-03-13T08:11:51.480Z,10.40
2023-03-13T08:16:53.259Z,10.46
2023-03-13T08:21:56.336Z,10.51
2023-03-13T08:26:58.072Z,10.63
2023-03-13T08:31:59.739Z,10.79
2023-03-13T08:37:02.742Z,10.96
2023-03-13T08:42:04.548Z,11.04
2023-03-13T08:47:06.432Z,11.19
2023-03-13T08:52:09.594Z,11.34
2023-03-13T08:57:11.254Z,11.54
2023-03-13T09:02:18.730Z,11.74
2023-03-13T09:07:21.752Z,11.75
2023-03-13T09:12:30.764Z,11.73
2023-03-13T09:17:32.624Z,11.81
2023-03-13T09:22:35.649Z,11.80
2023-03-13T09:27:37.328Z,11.79
2023-03-13T09:32:39.007Z,11.81
2023-03-13T09:37:42.033Z,11.99
2023-03-13T09:42:46.269Z,12.16
2023-03-13T09:47:49.146Z,12.51
2023-03-13T09:52:54.662Z,12.81
2023-03-13T09:57:57.059Z,12.94
2023-03-13T10:03:02.322Z,12.98
2023-03-13T10:08:13.220Z,12.89
2023-03-13T10:13:18.113Z,12.90
2023-03-13T10:18:23.704Z,12.98
2023-03-13T10:23:29.931Z,13.02
2023-03-13T10:28:31.630Z,13.07
2023-03-13T10:33:34.075Z,13.08
2023-03-13T10:38:48.648Z,13.18
2023-03-13T10:43:51.722Z,13.42
2023-03-13T10:48:54.411Z,13.68
2023-03-13T10:53:57.463Z,13.88
2023-03-13T10:58:59.172Z,14.06
2023-03-13T11:04:01.003Z,14.27
2023-03-13T11:09:11.034Z,14.38
2023-03-13T11:14:14.582Z,15.14
2023-03-13T11:19:29.648Z,17.35
2023-03-13T11:24:36.722Z,17.62
2023-03-13T11:29:42.429Z,18.02
2023-03-13T11:34:46.236Z,18.13
2023-03-13T11:39:53.608Z,17.95
2023-03-13T11:44:57.441Z,17.32
2023-03-13T11:50:28.941Z,17.20
2023-03-13T11:55:58.651Z,17.80
2023-03-13T12:01:01.751Z,17.71
2023-03-13T12:06:03.928Z,17.48
2023-03-13T12:11:12.532Z,17.98
2023-03-13T12:16:15.797Z,17.79
2023-03-13T12:21:19.578Z,18.46
2023-03-13T12:26:35.169Z,18.55
2023-03-13T12:31:38.236Z,18.51
2023-03-13T12:36:41.486Z,18.06
2023-03-13T12:41:45.063Z,18.13
2023-03-13T12:46:47.367Z,18.21
2023-03-13T12:51:57.835Z,18.19
2023-03-13T12:57:10.664Z,18.27
2023-03-13T13:02:16.654Z,18.63
2023-03-13T13:07:23.401Z,18.71
2023-03-13T13:12:26.471Z,18.63
2023-03-13T13:17:40.799Z,18.68
2023-03-13T13:22:47.168Z,18.48
2023-03-13T13:27:50.691Z,18.77
2023-03-13T13:32:52.542Z,18.37
2023-03-13T13:38:14.149Z,18.09
2023-03-13T13:43:21.655Z,18.26
2023-03-13T13:48:28.236Z,18.34
2023-03-13T13:53:31.031Z,18.22
2023-03-13T13:58:34.778Z,18.07
2023-03-13T14:03:42.096Z,18.13
2023-03-13T14:08:45.074Z,18.09
2023-03-13T14:14:03.098Z,18.11
2023-03-13T14:19:04.970Z,18.25
2023-03-13T14:24:13.301Z,18.20
2023-03-13T14:29:25.674Z,18.39
2023-03-13T14:34:30.978Z,18.35
2023-03-13T14:39:38.173Z,18.21
2023-03-13T14:44:43.781Z,18.16
2023-03-13T14:49:45.563Z,18.22
2023-03-13T14:54:52.586Z,17.94
2023-03-13T14:59:56.005Z,17.88
2023-03-13T15:04:59.607Z,17.64
2023-03-13T15:10:01.372Z,17.59
2023-03-13T15:15:05.044Z,17.47
2023-03-13T15:20:09.529Z,17.29
2023-03-13T15:25:15.396Z,17.28
2023-03-13T15:30:19.619Z,17.33
2023-03-13T15:35:27.394Z,17.23
2023-03-13T15:40:31.092Z,17.21
2023-03-13T15:45:34.231Z,17.11
2023-03-13T15:50:35.954Z,17.10
2023-03-13T15:55:37.668Z,16.96
2023-03-13T16:00:40.879Z,16.95
2023-03-13T16:05:42.783Z,16.83
2023-03-13T16:10:44.570Z,16.79
2023-03-13T16:15:48.949Z,16.76
2023-03-13T16:20:52.119Z,16.72
2023-03-13T16:25:53.833Z,16.68
2023-03-13T16:30:57.018Z,16.66
2023-03-13T16:35:58.764Z,16.49
2023-03-13T16:41:00.493Z,16.39
2023-03-13T16:46:06.322Z,16.23
2023-03-13T16:51:17.346Z,16.18
2023-03-13T16:56:21.868Z,16.07
2023-03-13T17:01:26.032Z,16.03
2023-03-13T17:06:28.682Z,15.89
2023-03-13T17:11:30.440Z,15.79
2023-03-13T17:16:34.442Z,15.66
2023-03-13T17:21:36.726Z,15.56
2023-03-13T17:26:38.907Z,15.45
2023-03-13T17:31:41.996Z,15.38
2023-03-13T17:36:44.533Z,15.31
2023-03-13T17:41:46.255Z,15.21
2023-03-13T17:46:51.179Z,15.12
2023-03-13T17:51:53.147Z,15.03
2023-03-13T17:56:56.374Z,14.93
2023-03-13T18:01:59.565Z,14.97
2023-03-13T18:07:01.290Z,14.80
2023-03-13T18:12:03.263Z,14.72
2023-03-13T18:17:13.387Z,14.63
2023-03-13T18:22:15.907Z,14.50
2023-03-13T18:27:18.725Z,14.42
2023-03-13T18:32:21.915Z,14.27
2023-03-13T18:37:26.076Z,14.29
2023-03-13T18:42:27.846Z,14.23
2023-03-13T18:47:31.400Z,14.31
2023-03-13T18:52:33.176Z,14.28
2023-03-13T18:57:34.979Z,14.18
2023-03-13T19:02:38.104Z,14.12
2023-03-13T19:07:39.965Z,14.07
2023-03-13T19:12:41.680Z,13.99
2023-03-13T19:17:44.816Z,13.94
2023-03-13T19:22:46.556Z,13.86
2023-03-13T19:27:48.363Z,13.84
2023-03-13T19:32:51.517Z,13.82
2023-03-13T19:37:53.317Z,13.78
2023-03-13T19:42:55.015Z,13.73
2023-03-13T19:47:57.983Z,13.68
2023-03-13T19:52:59.714Z,13.61
2023-03-13T19:58:03.910Z,13.58
2023-03-13T20:03:07.159Z,13.50
2023-03-13T20:08:08.917Z,13.51
2023-03-13T20:13:10.866Z,13.49
2023-03-13T20:18:13.912Z,13.46
2023-03-13T20:23:15.798Z,13.44
2023-03-13T20:28:17.503Z,13.45
2023-03-13T20:33:20.637Z,13.48
2023-03-13T20:38:22.796Z,13.47
2023-03-13T20:43:24.718Z,13.44
2023-03-13T20:48:28.002Z,13.42
2023-03-13T20:53:29.738Z,13.48
2023-03-13T20:58:31.528Z,13.45
2023-03-13T21:03:35.849Z,13.50
2023-03-13T21:08:38.875Z,13.49
2023-03-13T21:13:40.839Z,13.49
2023-03-13T21:18:43.890Z,13.48
2023-03-13T21:23:45.741Z,13.47
2023-03-13T21:28:47.994Z,13.42
2023-03-13T21:33:51.106Z,13.40
2023-03-13T21:38:52.899Z,13.35
2023-03-13T21:43:55.797Z,13.34
2023-03-13T21:48:59.004Z,13.31
2023-03-13T21:54:00.850Z,13.24
2023-03-13T21:59:02.612Z,13.21
2023-03-13T22:04:05.767Z,13.20
2023-03-13T22:09:08.597Z,13.17
2023-03-13T22:14:10.296Z,13.14
2023-03-13T22:19:14.194Z,13.08
2023-03-13T22:24:16.001Z,13.01
2023-03-13T22:29:17.697Z,12.93
2023-03-13T22:34:20.738Z,12.88
2023-03-13T22:39:22.544Z,12.84
2023-03-13T22:44:24.442Z,12.77
2023-03-13T22:49:27.820Z,12.74
2023-03-13T22:54:29.606Z,12.66
2023-03-13T22:59:31.594Z,12.63
2023-03-13T23:04:34.801Z,12.58
2023-03-13T23:09:36.681Z,12.50
2023-03-13T23:14:38.475Z,12.40
2023-03-13T23:19:41.819Z,12.34
2023-03-13T23:24:43.554Z,12.29
2023-03-13T23:29:45.430Z,12.26
2023-03-13T23:34:48.456Z,12.23
2023-03-13T23:39:50.156Z,12.23
2023-03-13T23:44:51.870Z,12.23
2023-03-13T23:49:55.041Z,12.26
2023-03-13T23:54:57.030Z,12.29
